createdAt,value
2022-08-10T00:01:51.205Z,99301.50
2022-08-10T00:04:23.724Z,99296.66
2022-08-10T00:06:53.601Z,99283.81
2022-08-10T00:09:22.178Z,99301.09
2022-08-10T00:11:49.488Z,99294.66
2022-08-10T00:14:16.755Z,99285.00
2022-08-10T00:16:43.937Z,99289.03
2022-08-10T00:19:11.156Z,99291.44
2022-08-10T00:21:38.344Z,99281.44
2022-08-10T00:24:05.470Z,99288.69
2022-08-10T00:27:58.522Z,99298.72
2022-08-10T00:29:20.094Z,99296.31
2022-08-10T00:31:58.226Z,99301.13
2022-08-10T00:34:28.348Z,99297.53
2022-08-10T00:36:56.479Z,99291.13
2022-08-10T00:39:24.023Z,99287.09
2022-08-10T00:42:02.214Z,99288.25
2022-08-10T00:44:43.610Z,99279.44
2022-08-10T00:47:22.767Z,99292.25
2022-08-10T00:50:00.945Z,99290.25
2022-08-10T00:52:31.596Z,99296.25
2022-08-10T00:55:00.715Z,99293.91
2022-08-10T00:57:28.072Z,99292.72
2022-08-10T00:59:57.839Z,99296.34
2022-08-10T01:02:32.660Z,99291.13
2022-08-10T01:05:03.205Z,99280.31
2022-08-10T01:07:52.509Z,99287.13
2022-08-10T01:10:55.001Z,99293.94
2022-08-10T01:13:25.450Z,99286.72
2022-08-10T01:15:58.348Z,99281.09
2022-08-10T01:18:38.402Z,99281.09
2022-08-10T01:21:24.189Z,99280.75
2022-08-10T01:24:13.151Z,99288.38
2022-08-10T01:26:47.765Z,99274.34
2022-08-10T01:29:28.801Z,99277.16
2022-08-10T01:32:03.628Z,99282.75
2022-08-10T01:34:40.099Z,99277.56
2022-08-10T01:37:14.858Z,99277.94
2022-08-10T01:39:47.340Z,99281.97
2022-08-10T01:42:18.635Z,99279.97
2022-08-10T01:44:55.602Z,99288.38
2022-08-10T01:47:46.543Z,99282.78
2022-08-10T01:50:23.003Z,99281.97
2022-08-10T01:52:53.317Z,99283.56
2022-08-10T01:55:21.609Z,99289.22
2022-08-10T01:57:51.090Z,99298.44
2022-08-10T02:00:19.252Z,99305.25
2022-08-10T02:02:47.951Z,99298.03
2022-08-10T02:05:16.907Z,99294.81
2022-08-10T02:07:47.094Z,99314.03
2022-08-10T02:10:19.356Z,99312.81
2022-08-10T02:12:48.442Z,99305.19
2022-08-10T02:15:19.670Z,99301.97
2022-08-10T02:18:01.884Z,99300.78
2022-08-10T02:20:35.363Z,99294.75
2022-08-10T02:23:08.814Z,99300.75
2022-08-10T02:25:41.951Z,99299.56
2022-08-10T02:28:29.970Z,99293.94
2022-08-10T02:31:11.618Z,99304.38
2022-08-10T02:33:56.495Z,99304.00
2022-08-10T02:36:29.659Z,99318.91
2022-08-10T02:39:01.175Z,99308.44
2022-08-10T02:45:12.667Z,99322.09
2022-08-10T02:45:24.118Z,99343.34
2022-08-10T02:47:50.825Z,99350.16
2022-08-10T02:50:29.500Z,99338.13
2022-08-10T02:53:56.155Z,99337.28
2022-08-10T02:56:30.967Z,99342.13
2022-08-10T02:59:29.005Z,99337.28
2022-08-10T03:02:10.575Z,99342.09
2022-08-10T03:04:56.161Z,99350.91
2022-08-10T03:07:43.478Z,99340.88
2022-08-10T03:10:41.400Z,99349.28
2022-08-10T03:13:10.719Z,99352.91
2022-08-10T03:15:40.239Z,99360.94
2022-08-10T03:18:09.122Z,99349.28
2022-08-10T03:20:40.327Z,99367.31
2022-08-10T03:23:14.132Z,99360.03
2022-08-10T03:25:53.407Z,99358.00
2022-08-10T03:28:24.219Z,99351.56
2022-08-10T03:30:53.315Z,99361.59
2022-08-10T03:33:22.514Z,99361.16
2022-08-10T03:36:43.261Z,99369.97
2022-08-10T03:38:40.987Z,99376.38
2022-08-10T03:41:15.955Z,99386.03
2022-08-10T03:43:47.871Z,99380.00
2022-08-10T03:46:16.587Z,99381.19
2022-08-10T03:48:49.209Z,99383.97
2022-08-10T03:51:19.721Z,99384.38
2022-08-10T03:54:05.627Z,99407.66
2022-08-10T03:56:39.092Z,99411.19
2022-08-10T03:59:09.930Z,99400.38
2022-08-10T04:02:46.396Z,99424.09
2022-08-10T04:04:25.912Z,99430.09
2022-08-10T04:06:56.010Z,99422.78
2022-08-10T04:09:54.227Z,99435.63
2022-08-10T04:12:20.448Z,99426.81
2022-08-10T04:14:51.040Z,99437.66
2022-08-10T04:18:05.222Z,99454.84
2022-08-10T04:20:50.194Z,99454.03
2022-08-10T04:23:24.545Z,99441.22
2022-08-10T04:25:56.130Z,99439.25
2022-08-10T04:28:24.498Z,99449.66
2022-08-10T04:30:54.073Z,99465.72
2022-08-10T04:33:23.619Z,99459.00
2022-08-10T04:35:52.562Z,99464.59
2022-08-10T04:38:21.468Z,99456.63
2022-08-10T04:40:49.198Z,99465.94
2022-08-10T04:43:16.558Z,99462.38
2022-08-10T04:45:48.612Z,99466.38
2022-08-10T04:48:43.482Z,99450.38
2022-08-10T04:51:20.927Z,99455.59
2022-08-10T04:54:02.683Z,99444.78
2022-08-10T04:57:03.052Z,99446.41
2022-08-10T04:59:30.207Z,99443.22
2022-08-10T05:02:22.252Z,99438.81
2022-08-10T05:04:44.746Z,99431.97
2022-08-10T05:07:17.125Z,99437.25
2022-08-10T05:10:02.190Z,99454.06
2022-08-10T05:12:38.834Z,99450.44
2022-08-10T05:15:14.705Z,99458.47
2022-08-10T05:18:06.802Z,99460.03
2022-08-10T05:20:33.961Z,99465.66
2022-08-10T05:23:01.299Z,99470.47
2022-08-10T05:25:29.912Z,99476.06
2022-08-10T05:28:04.410Z,99474.44
2022-08-10T05:30:34.429Z,99474.88
2022-08-10T05:33:05.256Z,99479.66
2022-08-10T05:35:56.297Z,99483.28
2022-08-10T05:38:26.741Z,99476.44
2022-08-10T05:40:54.730Z,99488.50
2022-08-10T05:43:22.450Z,99475.69
2022-08-10T05:46:16.809Z,99482.47
2022-08-10T05:48:56.759Z,99480.91
2022-08-10T05:51:29.428Z,99482.88
2022-08-10T05:54:04.162Z,99482.94
2022-08-10T05:56:54.191Z,99491.78
2022-08-10T06:00:12.615Z,99492.56
2022-08-10T06:02:33.206Z,99500.97
2022-08-10T06:05:11.484Z,99497.34
2022-08-10T06:07:42.838Z,99488.91
2022-08-10T06:10:12.719Z,99500.09
2022-08-10T06:12:53.956Z,99493.69
2022-08-10T06:15:50.802Z,99488.09
2022-08-10T06:18:17.253Z,99489.72
2022-08-10T06:20:46.178Z,99483.75
2022-08-10T06:23:14.904Z,99498.19
2022-08-10T06:26:12.269Z,99497.00
2022-08-10T06:28:34.148Z,99499.00
2022-08-10T06:31:04.749Z,99465.69
2022-08-10T06:33:34.954Z,99499.47
2022-08-10T06:36:04.161Z,99499.88
2022-08-10T06:38:34.035Z,99505.50
2022-08-10T06:41:08.628Z,99508.34
2022-08-10T06:43:40.717Z,99503.13
2022-08-10T06:46:15.662Z,99506.72
2022-08-10T06:48:57.667Z,99498.69
2022-08-10T06:51:30.984Z,99508.34
2022-08-10T06:54:02.453Z,99503.09
2022-08-10T06:56:36.708Z,99492.66
2022-08-10T06:59:22.863Z,99494.66
2022-08-10T07:01:55.082Z,99491.47
2022-08-10T07:04:32.456Z,99499.50
2022-08-10T07:07:06.672Z,99501.13
2022-08-10T07:09:40.415Z,99512.34
2022-08-10T07:12:09.970Z,99514.78
2022-08-10T07:14:40.813Z,99513.97
2022-08-10T07:17:15.152Z,99512.78
2022-08-10T07:19:56.165Z,99508.34
2022-08-10T07:23:22.774Z,99519.22
2022-08-10T07:25:25.639Z,99511.97
2022-08-10T07:28:00.108Z,99515.56
2022-08-10T07:30:37.429Z,99526.84
2022-08-10T07:33:06.424Z,99530.44
2022-08-10T07:35:42.791Z,99536.88
2022-08-10T07:38:17.707Z,99525.22
2022-08-10T07:40:48.793Z,99531.63
2022-08-10T07:43:18.223Z,99514.38
2022-08-10T07:45:48.012Z,99529.59
2022-08-10T07:48:47.454Z,99519.97
2022-08-10T07:51:18.680Z,99528.41
2022-08-10T07:53:51.530Z,99517.13
2022-08-10T07:56:47.407Z,99532.38
2022-08-10T07:59:15.105Z,99523.94
2022-08-10T08:01:53.503Z,99533.16
2022-08-10T08:04:24.365Z,99517.50
2022-08-10T08:06:53.338Z,99511.06
2022-08-10T08:09:22.208Z,99523.91
2022-08-10T08:11:53.429Z,99520.28
2022-08-10T08:14:21.970Z,99517.06
2022-08-10T08:16:52.940Z,99520.16
2022-08-10T08:19:37.690Z,99516.09
2022-08-10T08:24:09.602Z,99477.97
2022-08-10T08:24:59.325Z,99507.94
2022-08-10T08:27:29.006Z,99511.53
2022-08-10T08:29:56.414Z,99512.75
2022-08-10T08:32:26.654Z,99511.59
2022-08-10T08:35:02.689Z,99510.03
2022-08-10T08:38:33.202Z,99499.97
2022-08-10T08:40:35.351Z,99489.19
2022-08-10T08:43:21.601Z,99498.72
2022-08-10T08:46:13.186Z,99489.00
2022-08-10T08:48:55.527Z,99486.09
2022-08-10T08:52:09.870Z,99481.63
2022-08-10T08:54:57.677Z,99487.06
2022-08-10T08:57:51.708Z,99479.72
2022-08-10T09:00:41.744Z,99443.19
2022-08-10T09:03:47.382Z,99464.22
2022-08-10T09:06:26.987Z,99457.25
2022-08-10T09:09:15.621Z,99456.72
2022-08-10T09:12:11.270Z,99455.13
2022-08-10T09:14:52.848Z,99450.75
2022-08-10T09:17:35.583Z,99453.41
2022-08-10T09:20:22.652Z,99447.84
2022-08-10T09:22:57.307Z,99446.06
2022-08-10T09:25:32.516Z,99439.56
2022-08-10T09:28:05.606Z,99443.94
2022-08-10T09:31:10.808Z,99433.75
2022-08-10T09:36:22.799Z,99433.88
2022-08-10T09:37:02.691Z,99445.91
2022-08-10T09:40:48.472Z,99429.28
2022-08-10T09:43:14.261Z,99434.41
2022-08-10T09:45:45.890Z,99434.25
2022-08-10T09:48:30.525Z,99426.31
2022-08-10T09:51:44.314Z,99428.34
2022-08-10T09:54:39.763Z,99431.09
2022-08-10T09:57:44.467Z,99421.97
2022-08-10T10:00:21.827Z,99426.75
2022-08-10T10:03:04.132Z,99422.72
2022-08-10T10:05:51.105Z,99420.00
2022-08-10T10:08:43.077Z,99424.75
2022-08-10T10:11:42.380Z,99425.13
2022-08-10T10:14:21.796Z,99415.63
2022-08-10T10:17:09.340Z,99402.31
2022-08-10T10:19:56.487Z,99423.53
2022-08-10T10:22:29.703Z,99417.50
2022-08-10T10:24:56.972Z,99413.66
2022-08-10T10:27:48.225Z,99422.50
2022-08-10T10:30:17.361Z,99422.44
2022-08-10T10:33:03.267Z,99424.56
2022-08-10T10:35:55.112Z,99409.09
2022-08-10T10:38:28.976Z,99402.28
2022-08-10T10:41:14.127Z,99415.56
2022-08-10T10:43:50.480Z,99417.66
2022-08-10T10:46:29.988Z,99407.16
2022-08-10T10:49:38.228Z,99400.91
2022-08-10T10:52:18.384Z,99408.59
2022-08-10T10:54:55.793Z,99406.53
2022-08-10T10:57:59.318Z,99412.13
2022-08-10T11:00:24.163Z,99423.00
2022-08-10T11:03:48.702Z,99427.25
2022-08-10T11:06:52.723Z,99420.44
2022-08-10T11:10:06.977Z,99412.13
2022-08-10T11:12:45.110Z,99416.78
2022-08-10T11:15:28.567Z,99410.75
2022-08-10T11:18:01.878Z,99398.19
2022-08-10T11:20:42.733Z,99406.25
2022-08-10T11:23:31.797Z,99394.09
2022-08-10T11:26:22.853Z,99390.50
2022-08-10T11:28:58.092Z,99368.66
2022-08-10T11:31:34.127Z,99380.72
2022-08-10T11:34:47.062Z,99388.34
2022-08-10T11:37:05.667Z,99394.66
2022-08-10T11:39:48.620Z,99390.41
2022-08-10T11:42:36.137Z,99377.53
2022-08-10T11:45:12.251Z,99376.88
2022-08-10T11:47:56.988Z,99371.75
2022-08-10T11:50:45.760Z,99353.94
2022-08-10T11:53:22.545Z,99375.28
2022-08-10T11:55:55.894Z,99370.22
2022-08-10T11:58:48.073Z,99369.09
2022-08-10T12:01:20.845Z,99364.13
2022-08-10T12:03:49.270Z,99374.03
2022-08-10T12:06:39.230Z,99366.91
2022-08-10T12:10:10.473Z,99356.50
2022-08-10T12:11:59.418Z,99367.91
2022-08-10T12:14:46.518Z,99341.03
2022-08-10T12:17:22.974Z,99368.50
2022-08-10T12:20:16.455Z,99382.41
2022-08-10T12:22:50.796Z,99361.25
2022-08-10T12:25:56.080Z,99367.88
2022-08-10T12:28:50.783Z,99364.09
2022-08-10T12:31:18.773Z,99353.97
2022-08-10T12:34:29.534Z,99364.75
2022-08-10T12:37:22.699Z,99351.19
2022-08-10T12:40:33.982Z,99328.78
2022-08-10T12:44:04.323Z,99359.69
2022-08-10T12:46:32.964Z,99355.28
2022-08-10T12:49:13.556Z,99353.22
2022-08-10T12:51:49.641Z,99353.13
2022-08-10T12:54:33.000Z,99351.63
2022-08-10T12:57:07.862Z,99339.03
2022-08-10T12:59:43.423Z,99335.59
2022-08-10T13:02:28.993Z,99327.09
2022-08-10T13:04:59.361Z,99337.00
2022-08-10T13:08:24.231Z,99328.41
2022-08-10T13:10:21.189Z,99330.97
2022-08-10T13:12:52.705Z,99334.31
2022-08-10T13:15:50.043Z,99332.38
2022-08-10T13:18:40.888Z,99345.72
2022-08-10T13:21:20.419Z,99330.78
2022-08-10T13:24:03.959Z,99336.66
2022-08-10T13:26:38.934Z,99321.78
2022-08-10T13:29:28.221Z,99324.31
2022-08-10T13:32:09.659Z,99331.59
2022-08-10T13:34:46.511Z,99322.28
2022-08-10T13:37:19.491Z,99320.06
2022-08-10T13:39:58.351Z,99323.78
2022-08-10T13:42:33.027Z,99322.91
2022-08-10T13:45:07.790Z,99327.50
2022-08-10T13:47:47.913Z,99316.75
2022-08-10T13:50:33.195Z,99313.75
2022-08-10T13:53:09.997Z,99318.09
2022-08-10T13:55:55.514Z,99315.72
2022-08-10T13:58:29.558Z,99310.69
2022-08-10T14:00:59.819Z,99313.78
2022-08-10T14:03:28.697Z,99322.13
2022-08-10T14:05:58.425Z,99326.72
2022-08-10T14:08:29.480Z,99312.38
2022-08-10T14:11:09.799Z,99319.78
2022-08-10T14:13:44.503Z,99310.56
2022-08-10T14:16:13.591Z,99318.00
2022-08-10T14:18:44.962Z,99316.94
2022-08-10T14:21:14.750Z,99308.88
2022-08-10T14:23:48.593Z,99302.41
2022-08-10T14:26:24.919Z,99301.34
2022-08-10T14:29:02.569Z,99309.88
2022-08-10T14:31:33.845Z,99308.44
2022-08-10T14:34:06.097Z,99312.47
2022-08-10T14:36:51.250Z,99315.94
2022-08-10T14:39:26.884Z,99307.53
2022-08-10T14:42:03.105Z,99308.38
2022-08-10T14:44:48.679Z,99304.78
2022-08-10T14:47:53.245Z,99300.22
2022-08-10T14:50:09.835Z,99311.31
2022-08-10T14:52:44.146Z,99302.06
2022-08-10T14:55:19.560Z,99319.69
2022-08-10T14:58:20.399Z,99313.97
2022-08-10T15:00:43.008Z,99309.97
2022-08-10T15:04:01.027Z,99303.66
2022-08-10T15:06:18.082Z,99307.66
2022-08-10T15:08:47.521Z,99302.50
2022-08-10T15:12:12.382Z,99309.97
2022-08-10T15:14:29.332Z,99312.00
2022-08-10T15:16:55.340Z,99303.31
2022-08-10T15:20:01.767Z,99270.69
2022-08-10T15:22:36.571Z,99300.84
2022-08-10T15:25:18.227Z,99299.88
2022-08-10T15:27:53.418Z,99293.91
2022-08-10T15:30:33.202Z,99281.59
2022-08-10T15:33:59.515Z,99289.56
2022-08-10T15:36:34.949Z,99306.22
2022-08-10T15:39:58.377Z,99299.81
2022-08-10T15:42:02.858Z,99296.19
2022-08-10T15:44:39.807Z,99301.84
2022-08-10T15:47:27.239Z,99301.25
2022-08-10T15:50:31.499Z,99298.47
2022-08-10T15:53:08.315Z,99300.53
2022-08-10T15:55:49.841Z,99298.50
2022-08-10T15:58:40.011Z,99285.97
2022-08-10T16:02:15.119Z,99297.22
2022-08-10T16:04:10.903Z,99300.84
2022-08-10T16:06:49.806Z,99293.75
2022-08-10T16:10:24.136Z,99294.75
2022-08-10T16:12:17.463Z,99310.66
2022-08-10T16:15:00.260Z,99294.53
2022-08-10T16:17:28.826Z,99299.09
2022-08-10T16:19:58.812Z,99307.59
2022-08-10T16:22:37.227Z,99303.81
2022-08-10T16:25:14.506Z,99307.25
2022-08-10T16:27:44.179Z,99308.06
2022-08-10T16:30:12.466Z,99309.72
2022-08-10T16:32:41.694Z,99307.09
2022-08-10T16:35:15.657Z,99300.69
2022-08-10T16:37:57.908Z,99298.03
2022-08-10T16:40:29.705Z,99309.34
2022-08-10T16:43:00.131Z,99309.91
2022-08-10T16:45:41.602Z,99304.44
2022-08-10T16:48:12.227Z,99307.69
2022-08-10T16:50:51.360Z,99317.44
2022-08-10T16:53:21.395Z,99315.13
2022-08-10T16:55:52.707Z,99324.44
2022-08-10T16:58:27.541Z,99317.69
2022-08-10T17:01:02.601Z,99319.75
2022-08-10T17:04:07.744Z,99316.28
2022-08-10T17:06:30.779Z,99319.56
2022-08-10T17:09:00.947Z,99325.22
2022-08-10T17:11:31.853Z,99330.22
2022-08-10T17:14:01.307Z,99320.66
2022-08-10T17:16:38.597Z,99335.69
2022-08-10T17:19:13.255Z,99331.31
2022-08-10T17:21:51.390Z,99335.38
2022-08-10T17:24:23.991Z,99345.19
2022-08-10T17:26:51.681Z,99342.50
2022-08-10T17:29:58.523Z,99344.50
2022-08-10T17:32:13.644Z,99344.59
2022-08-10T17:34:46.853Z,99348.69
2022-08-10T17:37:20.146Z,99309.50
2022-08-10T17:39:56.353Z,99355.16
2022-08-10T17:42:25.739Z,99363.25
2022-08-10T17:44:54.457Z,99367.28
2022-08-10T17:47:25.346Z,99378.25
2022-08-10T17:49:59.209Z,99372.69
2022-08-10T17:52:31.988Z,99372.38
2022-08-10T17:55:07.852Z,99374.34
2022-08-10T17:57:37.948Z,99380.41
2022-08-10T18:00:13.188Z,99379.69
2022-08-10T18:02:44.086Z,99384.97
2022-08-10T18:05:12.911Z,99395.03
2022-08-10T18:07:50.742Z,99405.59
2022-08-10T18:10:21.345Z,99405.56
2022-08-10T18:12:56.134Z,99407.59
2022-08-10T18:15:28.218Z,99404.44
2022-08-10T18:18:03.316Z,99414.50
2022-08-10T18:20:39.725Z,99404.88
2022-08-10T18:23:08.525Z,99408.88
2022-08-10T18:25:39.769Z,99423.38
2022-08-10T18:28:19.352Z,99418.22
2022-08-10T18:30:51.502Z,99430.66
2022-08-10T18:33:24.314Z,99431.16
2022-08-10T18:35:53.492Z,99436.38
2022-08-10T18:38:22.451Z,99439.28
2022-08-10T18:41:27.453Z,99437.66
2022-08-10T18:44:12.213Z,99456.19
2022-08-10T18:47:00.037Z,99455.88
2022-08-10T18:49:39.267Z,99457.50
2022-08-10T18:52:12.406Z,99449.91
2022-08-10T18:54:51.517Z,99451.09
2022-08-10T18:57:46.513Z,99457.53
2022-08-10T19:00:18.058Z,99451.13
2022-08-10T19:03:03.183Z,99456.38
2022-08-10T19:05:59.193Z,99455.59
2022-08-10T19:08:48.856Z,99446.38
2022-08-10T19:12:02.351Z,99456.00
2022-08-10T19:14:37.260Z,99452.00
2022-08-10T19:17:19.786Z,99452.00
2022-08-10T19:19:52.898Z,99454.03
2022-08-10T19:22:26.456Z,99441.63
2022-08-10T19:25:01.481Z,99451.25
2022-08-10T19:27:33.314Z,99455.31
2022-08-10T19:30:12.787Z,99445.66
2022-08-10T19:33:05.674Z,99437.66
2022-08-10T19:36:03.567Z,99443.66
2022-08-10T19:38:50.266Z,99442.88
2022-08-10T19:41:32.179Z,99440.88
2022-08-10T19:44:31.509Z,99448.09
2022-08-10T19:47:31.027Z,99441.28
2022-08-10T19:50:19.476Z,99448.91
2022-08-10T19:53:04.553Z,99450.50
2022-08-10T19:56:43.593Z,99451.72
2022-08-10T20:00:15.165Z,99451.34
2022-08-10T20:02:22.124Z,99442.91
2022-08-10T20:05:06.038Z,99451.72
2022-08-10T20:07:42.592Z,99450.91
2022-08-10T20:10:26.828Z,99430.38
2022-08-10T20:13:15.011Z,99455.72
2022-08-10T20:15:48.153Z,99449.31
2022-08-10T20:18:26.346Z,99449.72
2022-08-10T20:21:08.746Z,99457.75
2022-08-10T20:23:36.867Z,99458.97
2022-08-10T20:26:45.276Z,99454.53
2022-08-10T20:29:57.467Z,99457.69
2022-08-10T20:32:14.094Z,99450.84
2022-08-10T20:34:57.137Z,99447.63
2022-08-10T20:38:03.014Z,99441.59
2022-08-10T20:40:29.260Z,99440.00
2022-08-10T20:42:59.576Z,99458.44
2022-08-10T20:45:41.525Z,99451.22
2022-08-10T20:48:28.866Z,99450.38
2022-08-10T20:51:00.959Z,99444.78
2022-08-10T20:53:31.999Z,99452.81
2022-08-10T20:56:08.380Z,99445.53
2022-08-10T20:58:54.652Z,99449.91
2022-08-10T21:02:06.116Z,99453.53
2022-08-10T21:04:53.370Z,99445.88
2022-08-10T21:07:50.571Z,99445.00
2022-08-10T21:10:26.389Z,99453.38
2022-08-10T21:13:12.142Z,99447.78
2022-08-10T21:16:14.082Z,99443.34
2022-08-10T21:19:00.234Z,99448.13
2022-08-10T21:21:41.980Z,99454.13
2022-08-10T21:24:19.950Z,99463.63
2022-08-10T21:27:02.505Z,99439.94
2022-08-10T21:30:09.303Z,99457.97
2022-08-10T21:32:59.086Z,99417.66
2022-08-10T21:35:42.644Z,99455.47
2022-08-10T21:38:37.966Z,99459.47
2022-08-10T21:41:57.157Z,99463.81
2022-08-10T21:45:17.108Z,99457.03
2022-08-10T21:48:18.120Z,99453.47
2022-08-10T21:55:13.462Z,99455.69
2022-08-10T21:58:12.295Z,99457.72
2022-08-10T22:01:10.532Z,99451.00
2022-08-10T22:03:59.823Z,99460.28
2022-08-10T22:06:52.344Z,99451.16
2022-08-10T22:09:47.555Z,99451.84
2022-08-10T22:12:36.403Z,99423.16
2022-08-10T22:16:03.177Z,99437.22
2022-08-10T22:18:35.015Z,99436.28
2022-08-10T22:21:54.484Z,99438.25
2022-08-10T22:25:24.121Z,99448.53
2022-08-10T22:28:13.629Z,99450.06
2022-08-10T22:31:28.837Z,99453.28
2022-08-10T22:31:32.548Z,99451.22
2022-08-10T22:34:42.859Z,99455.69
2022-08-10T22:37:52.111Z,99458.78
2022-08-10T22:40:40.879Z,99445.09
2022-08-10T22:43:36.205Z,99421.31
2022-08-10T22:46:31.090Z,99445.53
2022-08-10T22:49:01.868Z,99442.09
2022-08-10T22:51:36.679Z,99444.59
2022-08-10T22:54:49.997Z,99434.19
2022-08-10T22:57:36.293Z,99426.19
2022-08-10T23:00:20.431Z,99438.78
2022-08-10T23:03:21.834Z,99432.78
2022-08-10T23:06:04.008Z,99432.75
2022-08-10T23:08:43.881Z,99421.84
2022-08-10T23:11:26.589Z,99432.25
2022-08-10T23:14:00.951Z,99441.38
2022-08-10T23:16:50.210Z,99430.13
2022-08-10T23:19:25.139Z,99429.63
2022-08-10T23:22:04.151Z,99441.19
2022-08-10T23:24:38.738Z,99440.28
2022-08-10T23:27:12.920Z,99426.66
2022-08-10T23:30:10.003Z,99434.84
2022-08-10T23:32:43.963Z,99427.56
2022-08-10T23:36:31.339Z,99425.06
2022-08-10T23:38:05.170Z,99422.28
2022-08-10T23:40:34.301Z,99426.88
2022-08-10T23:43:03.499Z,99430.88
2022-08-10T23:45:53.080Z,99424.50
2022-08-10T23:48:23.243Z,99421.53
2022-08-10T23:50:59.628Z,99425.44
2022-08-10T23:53:32.000Z,99422.94
2022-08-10T23:56:08.339Z,99422.06
2022-08-10T23:58:41.106Z,99424.31
